sensor_id;sensor_type;location;lat;lon;timestamp;pressure;altitude;pressure_sealevel;temperature;humidity
60337;BME280;46978;50.288;28.624;2023-12-07T00:00:59;99785.79;;;-5.77;100.00
60337;BME280;46978;50.288;28.624;2023-12-07T00:02:00;99789.09;;;-5.78;100.00
60337;BME280;46978;50.288;28.624;2023-12-07T00:03:02;99787.37;;;-5.79;100.00
60337;BME280;46978;50.288;28.624;2023-12-07T00:04:03;99785.63;;;-5.80;100.00
60337;BME280;46978;50.288;28.624;2023-12-07T00:05:06;99790.68;;;-5.80;100.00
60337;BME280;46978;50.288;28.624;2023-12-07T00:06:08;99784.77;;;-5.81;100.00
60337;BME280;46978;50.288;28.624;2023-12-07T00:07:10;99787.98;;;-5.83;99.97
60337;BME280;46978;50.288;28.624;2023-12-07T00:08:11;99787.91;;;-5.85;99.91
60337;BME280;46978;50.288;28.624;2023-12-07T00:09:13;99789.57;;;-5.85;99.95
60337;BME280;46978;50.288;28.624;2023-12-07T00:10:15;99790.27;;;-5.88;99.92
60337;BME280;46978;50.288;28.624;2023-12-07T00:11:16;99787.66;;;-5.89;99.98
60337;BME280;46978;50.288;28.624;2023-12-07T00:12:18;99786.80;;;-5.90;100.00
60337;BME280;46978;50.288;28.624;2023-12-07T00:13:19;99783.38;;;-5.90;100.00
60337;BME280;46978;50.288;28.624;2023-12-07T00:14:21;99789.24;;;-5.91;99.98
60337;BME280;46978;50.288;28.624;2023-12-07T00:15:22;99783.12;;;-5.95;99.87
60337;BME280;46978;50.288;28.624;2023-12-07T00:16:24;99787.27;;;-5.97;99.86
60337;BME280;46978;50.288;28.624;2023-12-07T00:17:26;99792.16;;;-6.00;99.93
60337;BME280;46978;50.288;28.624;2023-12-07T00:18:28;99786.94;;;-6.03;99.82
60337;BME280;46978;50.288;28.624;2023-12-07T00:21:20;99786.77;;;-6.06;100.00
60337;BME280;46978;50.288;28.624;2023-12-07T00:22:22;99784.16;;;-6.08;100.00
60337;BME280;46978;50.288;28.624;2023-12-07T00:23:23;99779.63;;;-6.14;99.98
60337;BME280;46978;50.288;28.624;2023-12-07T00:24:25;99779.63;;;-6.14;99.98
60337;BME280;46978;50.288;28.624;2023-12-07T00:25:26;99786.34;;;-6.14;100.00
60337;BME280;46978;50.288;28.624;2023-12-07T00:26:28;99784.52;;;-6.17;100.00
60337;BME280;46978;50.288;28.624;2023-12-07T00:27:30;99785.32;;;-6.18;100.00
60337;BME280;46978;50.288;28.624;2023-12-07T00:28:31;99786.87;;;-6.20;100.00
60337;BME280;46978;50.288;28.624;2023-12-07T00:29:33;99785.84;;;-6.23;100.00
60337;BME280;46978;50.288;28.624;2023-12-07T00:30:35;99778.09;;;-6.26;100.00
60337;BME280;46978;50.288;28.624;2023-12-07T00:31:36;99796.45;;;-6.29;100.00
60337;BME280;46978;50.288;28.624;2023-12-07T00:32:38;99781.30;;;-6.29;100.00
60337;BME280;46978;50.288;28.624;2023-12-07T00:33:39;99790.38;;;-6.33;100.00
60337;BME280;46978;50.288;28.624;2023-12-07T00:34:41;99779.33;;;-6.35;100.00
60337;BME280;46978;50.288;28.624;2023-12-07T00:35:42;99779.24;;;-6.36;100.00
60337;BME280;46978;50.288;28.624;2023-12-07T00:36:44;99778.27;;;-6.38;100.00
60337;BME280;46978;50.288;28.624;2023-12-07T00:37:46;99773.13;;;-6.40;100.00
60337;BME280;46978;50.288;28.624;2023-12-07T00:38:48;99776.46;;;-6.41;100.00
60337;BME280;46978;50.288;28.624;2023-12-07T00:39:49;99776.29;;;-6.44;100.00
60337;BME280;46978;50.288;28.624;2023-12-07T00:40:51;99773.68;;;-6.45;100.00
60337;BME280;46978;50.288;28.624;2023-12-07T00:41:52;99776.03;;;-6.49;100.00
60337;BME280;46978;50.288;28.624;2023-12-07T00:42:54;99779.24;;;-6.51;100.00
60337;BME280;46978;50.288;28.624;2023-12-07T00:43:55;99783.34;;;-6.53;100.00
60337;BME280;46978;50.288;28.624;2023-12-07T00:44:57;99778.13;;;-6.56;100.00
60337;BME280;46978;50.288;28.624;2023-12-07T00:45:58;99769.52;;;-6.60;100.00
60337;BME280;46978;50.288;28.624;2023-12-07T00:47:01;99772.72;;;-6.62;100.00
60337;BME280;46978;50.288;28.624;2023-12-07T00:48:03;99777.52;;;-6.67;100.00
60337;BME280;46978;50.288;28.624;2023-12-07T00:49:05;99775.77;;;-6.68;100.00
60337;BME280;46978;50.288;28.624;2023-12-07T00:50:11;99774.81;;;-6.70;100.00
60337;BME280;46978;50.288;28.624;2023-12-07T00:51:13;99776.39;;;-6.72;100.00
60337;BME280;46978;50.288;28.624;2023-12-07T00:52:14;99777.08;;;-6.75;100.00
60337;BME280;46978;50.288;28.624;2023-12-07T00:53:16;99777.08;;;-6.75;100.00
60337;BME280;46978;50.288;28.624;2023-12-07T00:54:17;99782.03;;;-6.76;100.00
60337;BME280;46978;50.288;28.624;2023-12-07T00:55:19;99784.55;;;-6.76;100.00
60337;BME280;46978;50.288;28.624;2023-12-07T00:56:21;99785.95;;;-6.81;100.00
60337;BME280;46978;50.288;28.624;2023-12-07T00:57:22;99792.63;;;-6.82;100.00
60337;BME280;46978;50.288;28.624;2023-12-07T00:58:24;99783.43;;;-6.81;100.00
60337;BME280;46978;50.288;28.624;2023-12-07T00:59:25;99786.73;;;-6.82;100.00
60337;BME280;46978;50.288;28.624;2023-12-07T01:00:27;99786.81;;;-6.81;100.00
60337;BME280;46978;50.288;28.624;2023-12-07T01:01:30;99787.67;;;-6.80;100.00
60337;BME280;46978;50.288;28.624;2023-12-07T01:02:31;99789.34;;;-6.81;100.00
60337;BME280;46978;50.288;28.624;2023-12-07T01:03:33;99786.73;;;-6.82;100.00
60337;BME280;46978;50.288;28.624;2023-12-07T01:04:35;99789.34;;;-6.81;100.00
60337;BME280;46978;50.288;28.624;2023-12-07T01:05:36;99801.00;;;-6.83;100.00
60337;BME280;46978;50.288;28.624;2023-12-07T01:06:38;99801.00;;;-6.83;100.00
60337;BME280;46978;50.288;28.624;2023-12-07T01:07:39;99794.30;;;-6.82;100.00
60337;BME280;46978;50.288;28.624;2023-12-07T01:08:41;99794.20;;;-6.84;100.00
60337;BME280;46978;50.288;28.624;2023-12-07T01:09:42;99795.06;;;-6.83;100.00
60337;BME280;46978;50.288;28.624;2023-12-07T01:10:44;99799.25;;;-6.84;100.00
60337;BME280;46978;50.288;28.624;2023-12-07T01:11:46;99795.78;;;-6.86;100.00
60337;BME280;46978;50.288;28.624;2023-12-07T01:12:47;99797.41;;;-6.87;100.00
60337;BME280;46978;50.288;28.624;2023-12-07T01:13:49;99799.08;;;-6.87;100.00
60337;BME280;46978;50.288;28.624;2023-12-07T01:14:50;99793.94;;;-6.89;100.00
60337;BME280;46978;50.288;28.624;2023-12-07T01:15:52;99793.17;;;-6.88;100.00
60337;BME280;46978;50.288;28.624;2023-12-07T01:16:54;99796.38;;;-6.90;100.00
60337;BME280;46978;50.288;28.624;2023-12-07T01:17:55;99801.42;;;-6.90;100.00
60337;BME280;46978;50.288;28.624;2023-12-07T01:18:57;99792.90;;;-6.92;100.00
60337;BME280;46978;50.288;28.624;2023-12-07T01:19:58;99796.19;;;-6.93;100.00
60337;BME280;46978;50.288;28.624;2023-12-07T01:21:00;99790.20;;;-6.95;100.00
60337;BME280;46978;50.288;28.624;2023-12-07T01:22:02;99791.83;;;-6.96;100.00
60337;BME280;46978;50.288;28.624;2023-12-07T01:23:03;99794.27;;;-6.97;100.00
60337;BME280;46978;50.288;28.624;2023-12-07T01:24:05;99797.59;;;-6.98;100.00
60337;BME280;46978;50.288;28.624;2023-12-07T01:25:07;99800.02;;;-7.00;100.00
60337;BME280;46978;50.288;28.624;2023-12-07T01:26:10;99789.03;;;-7.00;100.00
60337;BME280;46978;50.288;28.624;2023-12-07T01:27:11;99788.17;;;-7.01;100.00
60337;BME280;46978;50.288;28.624;2023-12-07T01:28:13;99794.97;;;-7.00;100.00
60337;BME280;46978;50.288;28.624;2023-12-07T01:29:14;99790.79;;;-6.99;100.00
60337;BME280;46978;50.288;28.624;2023-12-07T01:30:16;99793.31;;;-6.99;100.00
60337;BME280;46978;50.288;28.624;2023-12-07T01:31:18;99790.70;;;-7.01;100.00
60337;BME280;46978;50.288;28.624;2023-12-07T01:32:19;99788.95;;;-7.02;100.00
60337;BME280;46978;50.288;28.624;2023-12-07T01:33:21;99783.91;;;-7.02;100.00
60337;BME280;46978;50.288;28.624;2023-12-07T01:34:22;99786.34;;;-7.04;100.00
60337;BME280;46978;50.288;28.624;2023-12-07T01:35:24;99788.86;;;-7.04;100.00
60337;BME280;46978;50.288;28.624;2023-12-07T01:36:26;99787.14;;;-7.05;100.00
60337;BME280;46978;50.288;28.624;2023-12-07T01:37:27;99785.38;;;-7.06;100.00
60337;BME280;46978;50.288;28.624;2023-12-07T01:38:29;99779.57;;;-7.05;100.00
60337;BME280;46978;50.288;28.624;2023-12-07T01:39:30;99779.57;;;-7.05;100.00
60337;BME280;46978;50.288;28.624;2023-12-07T01:40:32;99782.09;;;-7.05;100.00
60337;BME280;46978;50.288;28.624;2023-12-07T01:41:34;99781.29;;;-7.04;100.00
60337;BME280;46978;50.288;28.624;2023-12-07T01:42:38;99781.29;;;-7.04;100.00
60337;BME280;46978;50.288;28.624;2023-12-07T01:43:47;99781.29;;;-7.04;100.00
60337;BME280;46978;50.288;28.624;2023-12-07T01:44:49;99791.47;;;-7.02;100.00
60337;BME280;46978;50.288;28.624;2023-12-07T01:45:51;99785.48;;;-7.04;100.00
60337;BME280;46978;50.288;28.624;2023-12-07T01:46:53;99783.81;;;-7.04;100.00
60337;BME280;46978;50.288;28.624;2023-12-07T01:47:55;99779.48;;;-7.06;100.00
60337;BME280;46978;50.288;28.624;2023-12-07T01:48:57;99777.64;;;-7.09;100.00
60337;BME280;46978;50.288;28.624;2023-12-07T01:50:00;99787.64;;;-7.10;100.00
60337;BME280;46978;50.288;28.624;2023-12-07T01:51:02;99779.98;;;-7.12;100.00
60337;BME280;46978;50.288;28.624;2023-12-07T01:52:05;99775.70;;;-7.13;100.00
60337;BME280;46978;50.288;28.624;2023-12-07T01:53:07;99775.61;;;-7.14;100.00
60337;BME280;46978;50.288;28.624;2023-12-07T01:54:08;99773.90;;;-7.15;100.00
60337;BME280;46978;50.288;28.624;2023-12-07T01:55:10;99778.05;;;-7.16;100.00
60337;BME280;46978;50.288;28.624;2023-12-07T01:56:13;99774.66;;;-7.16;100.00
60337;BME280;46978;50.288;28.624;2023-12-07T01:57:15;99772.14;;;-7.16;100.00
60337;BME280;46978;50.288;28.624;2023-12-07T01:58:18;99770.48;;;-7.16;100.00
60337;BME280;46978;50.288;28.624;2023-12-07T01:59:20;99777.19;;;-7.16;100.00
60337;BME280;46978;50.288;28.624;2023-12-07T02:00:22;99769.62;;;-7.16;100.00
60337;BME280;46978;50.288;28.624;2023-12-07T02:01:24;99773.00;;;-7.16;100.00
60337;BME280;46978;50.288;28.624;2023-12-07T02:02:26;99777.19;;;-7.16;100.00
60337;BME280;46978;50.288;28.624;2023-12-07T02:03:27;99775.44;;;-7.17;100.00
60337;BME280;46978;50.288;28.624;2023-12-07T02:04:29;99771.19;;;-7.18;100.00
60337;BME280;46978;50.288;28.624;2023-12-07T02:05:32;99771.96;;;-7.19;100.00
60337;BME280;46978;50.288;28.624;2023-12-07T02:06:34;99777.09;;;-7.18;100.00
60337;BME280;46978;50.288;28.624;2023-12-07T02:07:36;99773.72;;;-7.18;100.00
60337;BME280;46978;50.288;28.624;2023-12-07T02:08:38;99775.34;;;-7.19;100.00
60337;BME280;46978;50.288;28.624;2023-12-07T02:09:39;99777.78;;;-7.21;100.00
60337;BME280;46978;50.288;28.624;2023-12-07T02:10:41;99781.09;;;-7.22;100.00
60337;BME280;46978;50.288;28.624;2023-12-07T02:11:43;99775.07;;;-7.24;100.00
60337;BME280;46978;50.288;28.624;2023-12-07T02:12:45;99784.30;;;-7.24;100.00
60337;BME280;46978;50.288;28.624;2023-12-07T02:13:47;99781.77;;;-7.24;100.00
60337;BME280;46978;50.288;28.624;2023-12-07T02:14:50;99782.55;;;-7.25;100.00
60337;BME280;46978;50.288;28.624;2023-12-07T02:15:53;99782.45;;;-7.27;100.00
60337;BME280;46978;50.288;28.624;2023-12-07T02:17:07;99777.32;;;-7.28;100.00
60337;BME280;46978;50.288;28.624;2023-12-07T02:18:19;99782.18;;;-7.31;100.00
60337;BME280;46978;50.288;28.624;2023-12-07T02:20:46;99781.23;;;-7.33;100.00
60337;BME280;46978;50.288;28.624;2023-12-07T02:21:55;99786.95;;;-7.36;100.00
60337;BME280;46978;50.288;28.624;2023-12-07T02:23:01;99789.47;;;-7.36;100.00
60337;BME280;46978;50.288;28.624;2023-12-07T02:24:05;99785.23;;;-7.37;100.00
60337;BME280;46978;50.288;28.624;2023-12-07T02:25:10;99791.90;;;-7.37;100.00
60337;BME280;46978;50.288;28.624;2023-12-07T02:26:34;99790.95;;;-7.40;100.00
60337;BME280;46978;50.288;28.624;2023-12-07T02:27:41;99789.19;;;-7.41;100.00
60337;BME280;46978;50.288;28.624;2023-12-07T02:28:43;99793.47;;;-7.40;100.00
60337;BME280;46978;50.288;28.624;2023-12-07T02:29:45;99801.13;;;-7.38;100.00
60337;BME280;46978;50.288;28.624;2023-12-07T02:30:47;99797.83;;;-7.37;100.00
60337;BME280;46978;50.288;28.624;2023-12-07T02:31:48;99797.83;;;-7.37;100.00
60337;BME280;46978;50.288;28.624;2023-12-07T02:32:50;99800.45;;;-7.35;100.00
60337;BME280;46978;50.288;28.624;2023-12-07T02:33:52;99801.30;;;-7.35;100.00
60337;BME280;46978;50.288;28.624;2023-12-07T02:34:54;99800.45;;;-7.35;100.00
60337;BME280;46978;50.288;28.624;2023-12-07T02:35:56;99800.45;;;-7.35;100.00
60337;BME280;46978;50.288;28.624;2023-12-07T02:36:58;99789.56;;;-7.34;100.00
60337;BME280;46978;50.288;28.624;2023-12-07T02:38:02;99802.17;;;-7.34;100.00
60337;BME280;46978;50.288;28.624;2023-12-07T02:39:05;99791.22;;;-7.35;100.00
60337;BME280;46978;50.288;28.624;2023-12-07T02:40:09;99797.83;;;-7.37;100.00
60337;BME280;46978;50.288;28.624;2023-12-07T02:41:11;99799.46;;;-7.37;100.00
60337;BME280;46978;50.288;28.624;2023-12-07T02:42:14;99803.55;;;-7.40;100.00
60337;BME280;46978;50.288;28.624;2023-12-07T02:43:16;99791.62;;;-7.42;100.00
60337;BME280;46978;50.288;28.624;2023-12-07T02:44:18;99799.19;;;-7.42;100.00
60337;BME280;46978;50.288;28.624;2023-12-07T02:45:20;99797.09;;;-7.49;100.00
60337;BME280;46978;50.288;28.624;2023-12-07T02:46:22;99792.91;;;-7.49;100.00
60337;BME280;46978;50.288;28.624;2023-12-07T02:47:24;99792.91;;;-7.49;100.00
60337;BME280;46978;50.288;28.624;2023-12-07T02:48:25;99793.67;;;-7.50;100.00
60337;BME280;46978;50.288;28.624;2023-12-07T02:49:27;99788.55;;;-7.51;100.00
60337;BME280;46978;50.288;28.624;2023-12-07T02:50:28;99788.55;;;-7.51;100.00
60337;BME280;46978;50.288;28.624;2023-12-07T02:51:30;99791.87;;;-7.52;100.00
60337;BME280;46978;50.288;28.624;2023-12-07T02:52:32;99799.52;;;-7.51;100.00
60337;BME280;46978;50.288;28.624;2023-12-07T02:53:34;99786.83;;;-7.52;100.00
60337;BME280;46978;50.288;28.624;2023-12-07T02:54:35;99788.55;;;-7.51;100.00
60337;BME280;46978;50.288;28.624;2023-12-07T02:55:37;99792.73;;;-7.52;100.00
60337;BME280;46978;50.288;28.624;2023-12-07T02:56:38;99792.73;;;-7.52;100.00
60337;BME280;46978;50.288;28.624;2023-12-07T02:57:40;99799.52;;;-7.51;100.00
60337;BME280;46978;50.288;28.624;2023-12-07T02:58:42;99799.42;;;-7.52;100.00
60337;BME280;46978;50.288;28.624;2023-12-07T02:59:43;99799.33;;;-7.54;100.00
60337;BME280;46978;50.288;28.624;2023-12-07T03:00:45;99806.89;;;-7.54;100.00
60337;BME280;46978;50.288;28.624;2023-12-07T03:01:46;99806.00;;;-7.54;100.00
60337;BME280;46978;50.288;28.624;2023-12-07T03:02:48;99801.76;;;-7.55;100.00
60337;BME280;46978;50.288;28.624;2023-12-07T03:03:49;99810.18;;;-7.55;100.00
60337;BME280;46978;50.288;28.624;2023-12-07T03:04:51;99802.53;;;-7.57;100.00
60337;BME280;46978;50.288;28.624;2023-12-07T03:05:53;99804.95;;;-7.58;100.00
60337;BME280;46978;50.288;28.624;2023-12-07T03:06:55;99800.68;;;-7.59;100.00
60337;BME280;46978;50.288;28.624;2023-12-07T03:07:57;99800.68;;;-7.59;100.00
60337;BME280;46978;50.288;28.624;2023-12-07T03:08:58;99809.99;;;-7.58;100.00
60337;BME280;46978;50.288;28.624;2023-12-07T03:10:00;99796.53;;;-7.59;100.00
60337;BME280;46978;50.288;28.624;2023-12-07T03:11:01;99809.13;;;-7.59;100.00
60337;BME280;46978;50.288;28.624;2023-12-07T03:12:04;99798.25;;;-7.58;100.00
60337;BME280;46978;50.288;28.624;2023-12-07T03:13:06;99795.73;;;-7.58;100.00
60337;BME280;46978;50.288;28.624;2023-12-07T03:14:07;99797.58;;;-7.55;100.00
60337;BME280;46978;50.288;28.624;2023-12-07T03:15:09;99795.06;;;-7.55;100.00
60337;BME280;46978;50.288;28.624;2023-12-07T03:16:11;99796.72;;;-7.55;100.00
60337;BME280;46978;50.288;28.624;2023-12-07T03:17:13;99790.02;;;-7.55;100.00
60337;BME280;46978;50.288;28.624;2023-12-07T03:18:14;99793.40;;;-7.54;100.00
60337;BME280;46978;50.288;28.624;2023-12-07T03:19:16;99793.40;;;-7.54;100.00
60337;BME280;46978;50.288;28.624;2023-12-07T03:20:18;99791.68;;;-7.55;100.00
60337;BME280;46978;50.288;28.624;2023-12-07T03:21:19;99792.54;;;-7.55;100.00
60337;BME280;46978;50.288;28.624;2023-12-07T03:22:21;99794.11;;;-7.57;100.00
60337;BME280;46978;50.288;28.624;2023-12-07T03:23:22;99783.23;;;-7.56;100.00
60337;BME280;46978;50.288;28.624;2023-12-07T03:24:24;99796.53;;;-7.59;100.00
60337;BME280;46978;50.288;28.624;2023-12-07T03:25:25;99799.82;;;-7.60;100.00
60337;BME280;46978;50.288;28.624;2023-12-07T03:26:27;99791.30;;;-7.62;100.00
60337;BME280;46978;50.288;28.624;2023-12-07T03:27:29;99797.97;;;-7.62;100.00
60337;BME280;46978;50.288;28.624;2023-12-07T03:28:30;99791.21;;;-7.63;100.00
60337;BME280;46978;50.288;28.624;2023-12-07T03:29:32;99794.50;;;-7.64;100.00
60337;BME280;46978;50.288;28.624;2023-12-07T03:30:34;99795.36;;;-7.64;100.00
60337;BME280;46978;50.288;28.624;2023-12-07T03:31:35;99794.98;;;-7.70;100.00
60337;BME280;46978;50.288;28.624;2023-12-07T03:32:37;99797.59;;;-7.68;100.00
60337;BME280;46978;50.288;28.624;2023-12-07T03:33:41;99790.04;;;-7.68;100.00
60337;BME280;46978;50.288;28.624;2023-12-07T03:34:43;99797.50;;;-7.70;100.00
60337;BME280;46978;50.288;28.624;2023-12-07T03:35:44;99790.75;;;-7.71;100.00
60337;BME280;46978;50.288;28.624;2023-12-07T03:36:47;99788.23;;;-7.71;100.00
60337;BME280;46978;50.288;28.624;2023-12-07T03:37:49;99772.55;;;-7.80;100.00
60337;BME280;46978;50.288;28.624;2023-12-07T03:38:50;99788.99;;;-7.72;100.00
60337;BME280;46978;50.288;28.624;2023-12-07T03:39:52;99784.72;;;-7.73;100.00
60337;BME280;46978;50.288;28.624;2023-12-07T03:40:53;99779.68;;;-7.73;100.00
60337;BME280;46978;50.288;28.624;2023-12-07T03:41:55;99787.94;;;-7.76;100.00
60337;BME280;46978;50.288;28.624;2023-12-07T03:42:56;99781.15;;;-7.77;100.00
60337;BME280;46978;50.288;28.624;2023-12-07T03:43:58;99785.23;;;-7.79;100.00
60337;BME280;46978;50.288;28.624;2023-12-07T03:44:59;99775.83;;;-7.81;100.00
60337;BME280;46978;50.288;28.624;2023-12-07T03:46:05;99785.91;;;-7.81;100.00
60337;BME280;46978;50.288;28.624;2023-12-07T03:47:07;99784.95;;;-7.83;100.00
60337;BME280;46978;50.288;28.624;2023-12-07T03:48:09;99771.27;;;-7.87;100.00
60337;BME280;46978;50.288;28.624;2023-12-07T03:49:10;99771.27;;;-7.87;100.00
60337;BME280;46978;50.288;28.624;2023-12-07T03:50:13;99769.65;;;-7.86;100.00
60337;BME280;46978;50.288;28.624;2023-12-07T03:51:15;99771.02;;;-7.91;100.00
60337;BME280;46978;50.288;28.624;2023-12-07T03:52:17;99781.95;;;-7.91;100.00
60337;BME280;46978;50.288;28.624;2023-12-07T03:53:18;99771.79;;;-7.93;100.00
60337;BME280;46978;50.288;28.624;2023-12-07T03:54:20;99780.20;;;-7.92;100.00
60337;BME280;46978;50.288;28.624;2023-12-07T03:55:22;99781.00;;;-7.93;100.00
60337;BME280;46978;50.288;28.624;2023-12-07T03:56:28;99780.81;;;-7.96;100.00
60337;BME280;46978;50.288;28.624;2023-12-07T03:57:30;99780.72;;;-7.98;100.00
60337;BME280;46978;50.288;28.624;2023-12-07T03:58:32;99779.83;;;-7.98;100.00
60337;BME280;46978;50.288;28.624;2023-12-07T03:59:35;99779.83;;;-7.98;100.00
60337;BME280;46978;50.288;28.624;2023-12-07T04:00:37;99781.58;;;-7.97;100.00
60337;BME280;46978;50.288;28.624;2023-12-07T04:01:39;99780.34;;;-8.04;100.00
60337;BME280;46978;50.288;28.624;2023-12-07T04:02:41;99775.20;;;-8.05;100.00
60337;BME280;46978;50.288;28.624;2023-12-07T04:03:42;99778.68;;;-8.03;100.00
60337;BME280;46978;50.288;28.624;2023-12-07T04:04:44;99770.17;;;-8.05;100.00
60337;BME280;46978;50.288;28.624;2023-12-07T04:05:45;99776.16;;;-8.03;100.00
60337;BME280;46978;50.288;28.624;2023-12-07T04:06:47;99776.16;;;-8.03;100.00
60337;BME280;46978;50.288;28.624;2023-12-07T04:07:49;99775.30;;;-8.04;100.00
60337;BME280;46978;50.288;28.624;2023-12-07T04:08:51;99772.87;;;-8.02;100.00
60337;BME280;46978;50.288;28.624;2023-12-07T04:09:52;99778.01;;;-8.01;100.00
60337;BME280;46978;50.288;28.624;2023-12-07T04:10:54;99780.52;;;-8.01;100.00
60337;BME280;46978;50.288;28.624;2023-12-07T04:11:56;99771.98;;;-8.03;100.00
60337;BME280;46978;50.288;28.624;2023-12-07T04:12:58;99777.11;;;-8.01;100.00
60337;BME280;46978;50.288;28.624;2023-12-07T04:13:59;99777.11;;;-8.01;100.00
60337;BME280;46978;50.288;28.624;2023-12-07T04:15:01;99774.41;;;-8.04;100.00
60337;BME280;46978;50.288;28.624;2023-12-07T04:16:03;99773.45;;;-8.06;100.00
60337;BME280;46978;50.288;28.624;2023-12-07T04:17:05;99772.69;;;-8.05;100.00
60337;BME280;46978;50.288;28.624;2023-12-07T04:18:07;99779.34;;;-8.06;100.00
60337;BME280;46978;50.288;28.624;2023-12-07T04:19:08;99782.76;;;-8.05;100.00
60337;BME280;46978;50.288;28.624;2023-12-07T04:20:11;99781.09;;;-8.05;100.00
60337;BME280;46978;50.288;28.624;2023-12-07T04:21:12;99781.96;;;-8.04;100.00
60337;BME280;46978;50.288;28.624;2023-12-07T04:22:14;99787.09;;;-8.03;100.00
60337;BME280;46978;50.288;28.624;2023-12-07T04:23:16;99777.02;;;-8.03;100.00
60337;BME280;46978;50.288;28.624;2023-12-07T04:24:17;99777.11;;;-8.01;100.00
60337;BME280;46978;50.288;28.624;2023-12-07T04:25:19;99772.97;;;-8.01;100.00
60337;BME280;46978;50.288;28.624;2023-12-07T04:26:21;99776.34;;;-8.00;100.00
60337;BME280;46978;50.288;28.624;2023-12-07T04:27:22;99778.97;;;-7.99;100.00
60337;BME280;46978;50.288;28.624;2023-12-07T04:28:24;99776.34;;;-8.00;100.00
60337;BME280;46978;50.288;28.624;2023-12-07T04:29:26;99780.34;;;-8.04;100.00
60337;BME280;46978;50.288;28.624;2023-12-07T04:30:27;99779.44;;;-8.04;100.00
60337;BME280;46978;50.288;28.624;2023-12-07T04:31:29;99776.92;;;-8.04;100.00
60337;BME280;46978;50.288;28.624;2023-12-07T04:32:30;99781.96;;;-8.04;100.00
60337;BME280;46978;50.288;28.624;2023-12-07T04:33:32;99781.09;;;-8.05;100.00
60337;BME280;46978;50.288;28.624;2023-12-07T04:34:34;99779.44;;;-8.04;100.00
60337;BME280;46978;50.288;28.624;2023-12-07T04:35:35;99785.27;;;-8.05;100.00
60337;BME280;46978;50.288;28.624;2023-12-07T04:36:37;99781.86;;;-8.06;100.00
60337;BME280;46978;50.288;28.624;2023-12-07T04:37:38;99784.28;;;-8.07;100.00
60337;BME280;46978;50.288;28.624;2023-12-07T04:38:40;99777.53;;;-8.08;100.00
60337;BME280;46978;50.288;28.624;2023-12-07T04:39:41;99782.56;;;-8.08;100.00
60337;BME280;46978;50.288;28.624;2023-12-07T04:40:43;99787.41;;;-8.12;100.00
60337;BME280;46978;50.288;28.624;2023-12-07T04:41:44;99784.89;;;-8.12;100.00
60337;BME280;46978;50.288;28.624;2023-12-07T04:42:46;99785.66;;;-8.13;100.00
60337;BME280;46978;50.288;28.624;2023-12-07T04:43:47;99789.83;;;-8.13;100.00
60337;BME280;46978;50.288;28.624;2023-12-07T04:44:49;99793.97;;;-8.14;100.00
60337;BME280;46978;50.288;28.624;2023-12-07T04:45:50;99796.48;;;-8.14;100.00
60337;BME280;46978;50.288;28.624;2023-12-07T04:46:52;99793.97;;;-8.14;100.00
60337;BME280;46978;50.288;28.624;2023-12-07T04:47:54;99792.35;;;-8.13;100.00
60337;BME280;46978;50.288;28.624;2023-12-07T04:48:55;99796.48;;;-8.14;100.00
60337;BME280;46978;50.288;28.624;2023-12-07T04:49:57;99794.77;;;-8.15;100.00
60337;BME280;46978;50.288;28.624;2023-12-07T04:50:59;99799.70;;;-8.16;100.00
60337;BME280;46978;50.288;28.624;2023-12-07T04:52:00;99800.18;;;-8.22;100.00
60337;BME280;46978;50.288;28.624;2023-12-07T04:53:02;99793.39;;;-8.23;100.00
60337;BME280;46978;50.288;28.624;2023-12-07T04:54:03;99797.77;;;-8.20;100.00
60337;BME280;46978;50.288;28.624;2023-12-07T04:55:06;99809.29;;;-8.24;100.00
60337;BME280;46978;50.288;28.624;2023-12-07T04:56:09;99803.56;;;-8.21;100.00
60337;BME280;46978;50.288;28.624;2023-12-07T04:57:10;99801.73;;;-8.24;100.00
60337;BME280;46978;50.288;28.624;2023-12-07T04:58:12;99813.62;;;-8.21;100.00
60337;BME280;46978;50.288;28.624;2023-12-07T04:59:14;99814.52;;;-8.21;100.00
60337;BME280;46978;50.288;28.624;2023-12-07T05:00:16;99823.80;;;-8.20;100.00
60337;BME280;46978;50.288;28.624;2023-12-07T05:01:18;99812.00;;;-8.21;100.00
60337;BME280;46978;50.288;28.624;2023-12-07T05:02:20;99817.91;;;-8.20;100.00
60337;BME280;46978;50.288;28.624;2023-12-07T05:03:22;99812.48;;;-8.26;100.00
60337;BME280;46978;50.288;28.624;2023-12-07T05:04:23;99814.23;;;-8.25;100.00
60337;BME280;46978;50.288;28.624;2023-12-07T05:05:25;99809.29;;;-8.24;100.00
60337;BME280;46978;50.288;28.624;2023-12-07T05:06:27;99807.53;;;-8.25;100.00
60337;BME280;46978;50.288;28.624;2023-12-07T05:07:28;99808.50;;;-8.23;100.00
60337;BME280;46978;50.288;28.624;2023-12-07T05:08:30;99811.02;;;-8.23;100.00
60337;BME280;46978;50.288;28.624;2023-12-07T05:09:31;99812.97;;;-8.19;100.00
60337;BME280;46978;50.288;28.624;2023-12-07T05:10:33;99812.87;;;-8.20;100.00
60337;BME280;46978;50.288;28.624;2023-12-07T05:11:35;99811.30;;;-8.18;100.00
60337;BME280;46978;50.288;28.624;2023-12-07T05:12:36;99804.45;;;-8.21;100.00
60337;BME280;46978;50.288;28.624;2023-12-07T05:13:38;99808.69;;;-8.20;100.00
60337;BME280;46978;50.288;28.624;2023-12-07T05:14:39;99800.28;;;-8.20;100.00
60337;BME280;46978;50.288;28.624;2023-12-07T05:15:41;99804.55;;;-8.19;100.00
60337;BME280;46978;50.288;28.624;2023-12-07T05:16:43;99808.78;;;-8.18;100.00
60337;BME280;46978;50.288;28.624;2023-12-07T05:17:44;99812.97;;;-8.19;100.00
60337;BME280;46978;50.288;28.624;2023-12-07T05:18:46;99811.21;;;-8.20;100.00
60337;BME280;46978;50.288;28.624;2023-12-07T05:19:48;99814.52;;;-8.21;100.00
60337;BME280;46978;50.288;28.624;2023-12-07T05:20:49;99816.14;;;-8.21;100.00
60337;BME280;46978;50.288;28.624;2023-12-07T05:21:51;99817.04;;;-8.21;100.00
60337;BME280;46978;50.288;28.624;2023-12-07T05:22:53;99812.77;;;-8.22;100.00
60337;BME280;46978;50.288;28.624;2023-12-07T05:23:55;99817.80;;;-8.22;100.00